createdAt,value
2023-02-23T00:02:02.395Z,33.27
2023-02-23T00:06:04.318Z,29.53
2023-02-23T00:10:08.183Z,33.33
2023-02-23T00:14:10.529Z,32.33
2023-02-23T00:18:11.929Z,31.90
2023-02-23T00:22:13.398Z,36.77
2023-02-23T00:26:16.668Z,32.57
2023-02-23T00:30:19.798Z,29.17
2023-02-23T00:34:21.674Z,33.07
2023-02-23T00:38:23.100Z,33.17
2023-02-23T00:42:25.829Z,32.77
2023-02-23T00:46:29.513Z,32.03
2023-02-23T00:50:30.945Z,32.20
2023-02-23T00:54:32.358Z,35.17
2023-02-23T00:58:35.254Z,34.77
2023-02-23T01:02:36.661Z,35.13
2023-02-23T01:06:39.004Z,35.90
2023-02-23T01:10:41.509Z,33.80
2023-02-23T01:14:44.301Z,33.47
2023-02-23T01:18:46.858Z,31.57
2023-02-23T01:22:50.477Z,32.40
2023-02-23T01:26:51.965Z,31.90
2023-02-23T01:30:54.812Z,34.73
2023-02-23T01:34:56.234Z,33.63
2023-02-23T01:38:57.618Z,32.23
2023-02-23T01:43:09.596Z,35.27
2023-02-23T01:47:14.550Z,35.57
2023-02-23T01:51:20.839Z,33.60
2023-02-23T01:55:23.993Z,37.13
2023-02-23T01:59:29.752Z,35.87
2023-02-23T02:03:35.865Z,37.30
2023-02-23T02:07:37.484Z,38.77
2023-02-23T02:11:38.872Z,35.30
2023-02-23T02:16:01.660Z,37.33
2023-02-23T02:20:25.460Z,36.80
2023-02-23T02:25:06.030Z,42.37
2023-02-23T02:29:35.986Z,41.27
2023-02-23T02:33:51.672Z,42.10
2023-02-23T02:38:11.532Z,39.70
2023-02-23T02:42:21.535Z,36.93
2023-02-23T02:46:27.326Z,39.37
2023-02-23T02:50:36.709Z,43.50
2023-02-23T02:54:43.234Z,43.37
2023-02-23T02:58:44.912Z,46.17
2023-02-23T03:02:46.710Z,40.27
2023-02-23T03:06:53.624Z,41.37
2023-02-23T03:11:01.984Z,41.03
2023-02-23T03:15:16.945Z,41.83
2023-02-23T03:19:22.422Z,39.50
2023-02-23T03:23:28.984Z,40.77
2023-02-23T03:27:44.888Z,38.07
2023-02-23T03:31:50.660Z,40.17
2023-02-23T03:35:59.078Z,41.93
2023-02-23T03:40:08.780Z,37.93
2023-02-23T03:44:17.141Z,40.67
2023-02-23T03:48:21.299Z,38.93
2023-02-23T03:52:27.582Z,38.50
2023-02-23T03:56:33.642Z,34.60
2023-02-23T04:00:43.031Z,40.90
2023-02-23T04:04:46.406Z,39.73
2023-02-23T04:08:50.522Z,41.03
2023-02-23T04:12:57.653Z,46.47
2023-02-23T04:17:03.810Z,43.73
2023-02-23T04:21:06.587Z,39.47
2023-02-23T04:25:09.683Z,41.00
2023-02-23T04:29:11.624Z,40.60
2023-02-23T04:33:14.668Z,37.53
2023-02-23T04:37:16.173Z,39.87
2023-02-23T04:41:18.113Z,37.20
2023-02-23T04:45:20.327Z,36.20
2023-02-23T04:49:23.484Z,33.93
2023-02-23T04:53:24.920Z,36.20
2023-02-23T04:57:26.764Z,36.97
2023-02-23T05:01:28.169Z,38.37
2023-02-23T05:05:31.405Z,43.07
2023-02-23T05:09:32.851Z,38.97
2023-02-23T05:13:34.581Z,36.90
2023-02-23T05:17:38.496Z,39.90
2023-02-23T05:21:41.248Z,37.77
2023-02-23T05:25:42.798Z,37.70
2023-02-23T05:29:44.532Z,45.23
2023-02-23T05:33:45.966Z,42.27
2023-02-23T05:37:48.666Z,43.20
2023-02-23T05:41:50.085Z,46.80
2023-02-23T05:45:51.524Z,45.23
2023-02-23T05:49:52.911Z,46.00
2023-02-23T05:53:55.787Z,45.27
2023-02-23T05:57:58.370Z,46.70
2023-02-23T06:01:59.872Z,45.40
2023-02-23T06:06:01.286Z,43.80
2023-02-23T06:10:04.697Z,43.57
2023-02-23T06:14:06.169Z,44.13
2023-02-23T06:18:08.055Z,47.53
2023-02-23T06:22:09.706Z,44.93
2023-02-23T06:26:12.503Z,48.83
2023-02-23T06:30:14.405Z,47.63
2023-02-23T06:34:15.812Z,51.03
2023-02-23T06:38:17.243Z,49.70
2023-02-23T06:42:19.998Z,51.63
2023-02-23T06:46:21.581Z,51.73
2023-02-23T06:50:23.222Z,51.53
2023-02-23T06:54:24.796Z,51.27
2023-02-23T06:58:27.802Z,53.23
2023-02-23T07:02:29.217Z,54.17
2023-02-23T07:06:30.639Z,50.93
2023-02-23T07:10:32.995Z,54.03
2023-02-23T07:14:36.139Z,48.60
2023-02-23T07:18:37.562Z,50.93
2023-02-23T07:22:39.954Z,50.80
2023-02-23T07:26:42.801Z,50.27
2023-02-23T07:30:45.595Z,48.37
2023-02-23T07:34:46.986Z,47.13
2023-02-23T07:38:48.637Z,51.33
2023-02-23T07:42:50.012Z,48.60
2023-02-23T07:46:52.818Z,46.33
2023-02-23T07:50:54.203Z,46.80
2023-02-23T07:54:55.638Z,49.30
2023-02-23T07:58:57.131Z,47.47
2023-02-23T08:03:00.436Z,50.17
2023-02-23T08:07:01.862Z,49.43
2023-02-23T08:11:05.061Z,51.03
2023-02-23T08:15:07.385Z,53.37
2023-02-23T08:19:10.249Z,45.57
2023-02-23T08:23:11.900Z,47.23
2023-02-23T08:27:13.279Z,46.13
2023-02-23T08:31:15.916Z,46.33
2023-02-23T08:35:20.998Z,43.17
2023-02-23T08:39:22.447Z,38.90
2023-02-23T08:43:23.798Z,40.37
2023-02-23T08:47:25.274Z,38.70
2023-02-23T08:51:28.071Z,42.30
2023-02-23T08:55:29.468Z,41.33
2023-02-23T08:59:30.982Z,38.53
2023-02-23T09:03:35.265Z,39.60
2023-02-23T09:07:40.584Z,40.07
2023-02-23T09:11:42.135Z,36.77
2023-02-23T09:15:43.718Z,37.57
2023-02-23T09:19:45.302Z,31.87
2023-02-23T09:23:48.541Z,36.60
2023-02-23T09:27:51.117Z,33.93
2023-02-23T09:31:52.585Z,37.20
2023-02-23T09:35:54.023Z,35.53
2023-02-23T09:39:58.088Z,33.87
2023-02-23T09:44:03.346Z,35.93
2023-02-23T09:48:11.380Z,34.77
2023-02-23T09:52:20.889Z,41.00
2023-02-23T09:56:30.112Z,34.83
2023-02-23T10:00:39.352Z,36.10
2023-02-23T10:04:45.684Z,38.80
2023-02-23T10:08:55.722Z,36.33
2023-02-23T10:13:04.462Z,34.93
2023-02-23T10:17:18.915Z,37.37
2023-02-23T10:21:28.111Z,34.30
2023-02-23T10:25:33.575Z,34.97
2023-02-23T10:29:42.252Z,35.77
2023-02-23T10:33:43.592Z,36.17
2023-02-23T10:37:47.050Z,29.93
2023-02-23T10:41:48.711Z,26.83
2023-02-23T10:45:52.730Z,29.80
2023-02-23T10:49:56.752Z,36.57
2023-02-23T10:54:04.976Z,33.37
2023-02-23T10:58:12.516Z,30.60
2023-02-23T11:02:23.181Z,34.30
2023-02-23T11:06:30.060Z,34.77
2023-02-23T11:10:31.480Z,32.37
2023-02-23T11:14:32.963Z,34.13
2023-02-23T11:18:36.936Z,33.13
2023-02-23T11:22:41.617Z,27.77
2023-02-23T11:26:45.173Z,26.57
2023-02-23T11:30:47.853Z,28.73
2023-02-23T11:35:13.153Z,25.67
2023-02-23T11:39:20.103Z,29.23
2023-02-23T11:43:21.535Z,31.10
2023-02-23T11:47:24.025Z,28.57
2023-02-23T11:51:30.378Z,29.20
2023-02-23T11:55:33.676Z,30.60
2023-02-23T11:59:40.118Z,37.40
2023-02-23T12:03:47.421Z,34.50
2023-02-23T12:08:00.658Z,34.60
2023-02-23T12:12:05.952Z,34.73
2023-02-23T12:16:15.455Z,39.27
2023-02-23T12:20:21.788Z,43.70
2023-02-23T12:24:34.192Z,39.90
2023-02-23T12:28:40.535Z,39.70
2023-02-23T12:32:47.365Z,39.40
2023-02-23T12:36:52.903Z,38.40
2023-02-23T12:41:03.854Z,35.20
2023-02-23T12:45:10.599Z,40.17
2023-02-23T12:49:19.099Z,39.23
2023-02-23T12:53:25.807Z,42.03
2023-02-23T12:57:34.828Z,43.27
2023-02-23T13:01:41.114Z,46.67
2023-02-23T13:05:47.645Z,46.00
2023-02-23T13:09:59.967Z,48.47
2023-02-23T13:14:12.517Z,44.87
2023-02-23T13:18:23.842Z,44.33
2023-02-23T13:22:31.532Z,43.80
2023-02-23T13:26:38.912Z,44.97
2023-02-23T13:30:41.752Z,50.30
2023-02-23T13:34:49.043Z,48.97
2023-02-23T13:39:19.080Z,45.27
2023-02-23T13:43:25.893Z,47.33
2023-02-23T13:47:39.131Z,47.40
2023-02-23T13:51:45.446Z,47.80
2023-02-23T13:55:50.194Z,38.37
2023-02-23T13:59:52.153Z,32.80
2023-02-23T14:03:57.128Z,28.70
2023-02-23T14:08:01.138Z,28.73
2023-02-23T14:12:05.993Z,27.83
2023-02-23T14:16:10.622Z,25.33
2023-02-23T14:20:29.984Z,26.20
2023-02-23T14:24:31.770Z,25.37
2023-02-23T14:28:35.006Z,25.47
2023-02-23T14:32:38.636Z,27.10
2023-02-23T14:36:43.961Z,26.17
2023-02-23T14:40:48.713Z,27.10
2023-02-23T14:44:50.971Z,28.20
2023-02-23T14:48:59.289Z,28.17
2023-02-23T14:53:03.137Z,27.50
2023-02-23T14:57:06.726Z,26.50
2023-02-23T15:01:08.134Z,27.20
2023-02-23T15:05:17.013Z,26.40
2023-02-23T15:09:24.736Z,26.57
2023-02-23T15:13:30.250Z,29.53
2023-02-23T15:17:34.001Z,28.07
2023-02-23T15:21:36.427Z,30.90
2023-02-23T15:25:40.556Z,29.00
2023-02-23T15:29:41.997Z,25.80
2023-02-23T15:33:43.395Z,29.73
2023-02-23T15:37:55.309Z,29.23
2023-02-23T15:42:14.291Z,29.83
2023-02-23T15:46:22.846Z,29.47
2023-02-23T15:50:36.254Z,31.73
2023-02-23T15:54:46.937Z,26.67
2023-02-23T15:58:57.054Z,28.93
2023-02-23T16:03:01.118Z,28.73
2023-02-23T16:07:17.224Z,32.07
2023-02-23T16:11:19.246Z,32.00
2023-02-23T16:15:25.661Z,31.83
2023-02-23T16:19:29.613Z,27.87
2023-02-23T16:23:35.100Z,30.70
2023-02-23T16:27:38.119Z,31.97
2023-02-23T16:31:44.024Z,31.27
2023-02-23T16:35:47.534Z,33.73
2023-02-23T16:39:49.145Z,34.37
2023-02-23T16:43:53.152Z,33.53
2023-02-23T16:47:56.054Z,34.00
2023-02-23T16:51:58.435Z,37.13
2023-02-23T16:56:00.078Z,35.67
2023-02-23T17:00:03.120Z,38.77
2023-02-23T17:04:11.459Z,29.47
2023-02-23T17:08:12.953Z,32.33
2023-02-23T17:12:15.544Z,32.70
2023-02-23T17:16:16.969Z,33.87
2023-02-23T17:20:19.788Z,35.07
2023-02-23T17:24:21.248Z,35.70
2023-02-23T17:28:22.673Z,35.20
2023-02-23T17:32:24.731Z,34.47
2023-02-23T17:36:27.624Z,34.20
2023-02-23T17:40:29.335Z,34.30
2023-02-23T17:44:30.867Z,33.90
2023-02-23T17:48:32.276Z,37.97
2023-02-23T17:52:35.511Z,30.57
2023-02-23T17:56:36.883Z,38.13
2023-02-23T18:00:38.290Z,36.77
2023-02-23T18:04:41.437Z,37.07
2023-02-23T18:08:44.451Z,33.73
2023-02-23T18:12:46.124Z,38.70
2023-02-23T18:16:47.882Z,34.03
2023-02-23T18:20:50.792Z,35.33
2023-02-23T18:24:53.756Z,36.03
2023-02-23T18:28:55.223Z,36.20
2023-02-23T18:32:57.213Z,43.20
2023-02-23T18:36:58.812Z,37.67
2023-02-23T18:41:01.573Z,36.57
2023-02-23T18:45:03.331Z,35.17
2023-02-23T18:49:05.185Z,28.43
2023-02-23T18:53:06.863Z,31.97
2023-02-23T18:57:09.660Z,26.93
2023-02-23T19:01:11.676Z,31.77
2023-02-23T19:05:14.405Z,28.17
2023-02-23T19:09:16.131Z,35.10
2023-02-23T19:13:18.949Z,31.57
2023-02-23T19:17:20.363Z,28.90
2023-02-23T19:21:22.284Z,29.90
2023-02-23T19:25:23.836Z,29.73
2023-02-23T19:29:28.053Z,33.57
2023-02-23T19:33:29.622Z,33.03
2023-02-23T19:37:31.100Z,31.80
2023-02-23T19:41:33.973Z,28.70
2023-02-23T19:45:36.774Z,33.80
2023-02-23T19:49:38.294Z,35.57
2023-02-23T19:53:44.166Z,29.33
2023-02-23T19:57:45.964Z,28.47
2023-02-23T20:01:48.954Z,32.53
2023-02-23T20:05:50.365Z,31.47
2023-02-23T20:09:52.260Z,26.33
2023-02-23T20:13:54.091Z,27.90
2023-02-23T20:17:56.824Z,24.03
2023-02-23T20:21:58.459Z,25.10
2023-02-23T20:25:59.883Z,29.20
2023-02-23T20:30:01.687Z,26.13
2023-02-23T20:34:06.316Z,22.33
2023-02-23T20:38:07.822Z,23.57
2023-02-23T20:42:09.288Z,25.17
2023-02-23T20:46:12.449Z,21.60
2023-02-23T20:50:15.501Z,24.77
2023-02-23T20:54:17.388Z,21.87
2023-02-23T20:58:19.024Z,20.80
2023-02-23T21:02:20.437Z,20.03
2023-02-23T21:06:24.373Z,21.87
2023-02-23T21:10:29.357Z,20.43
2023-02-23T21:14:30.769Z,21.17
2023-02-23T21:18:32.429Z,18.87
2023-02-23T21:22:35.153Z,19.93
2023-02-23T21:26:36.592Z,19.80
2023-02-23T21:30:38.009Z,20.90
2023-02-23T21:34:39.581Z,17.37
2023-02-23T21:38:44.558Z,20.30
2023-02-23T21:42:46.801Z,18.87
2023-02-23T21:46:48.840Z,17.20
2023-02-23T21:50:50.303Z,19.13
2023-02-23T21:54:53.211Z,19.07
2023-02-23T21:58:56.016Z,18.63
2023-02-23T22:02:57.508Z,17.60
2023-02-23T22:06:58.955Z,19.53
2023-02-23T22:11:07.472Z,19.70
2023-02-23T22:15:09.561Z,21.53
2023-02-23T22:19:12.491Z,19.73
2023-02-23T22:23:14.017Z,20.33
2023-02-23T22:27:16.804Z,22.77
2023-02-23T22:31:18.770Z,19.97
2023-02-23T22:35:20.321Z,19.87
2023-02-23T22:39:21.750Z,20.80
2023-02-23T22:43:24.851Z,21.13
2023-02-23T22:47:26.369Z,20.57
2023-02-23T22:51:27.886Z,18.77
2023-02-23T22:55:30.099Z,21.10
2023-02-23T22:59:32.900Z,21.00
2023-02-23T23:03:36.685Z,21.03
2023-02-23T23:07:38.300Z,21.27
2023-02-23T23:11:40.307Z,21.07
2023-02-23T23:15:43.093Z,26.37
2023-02-23T23:19:44.602Z,26.33
2023-02-23T23:23:45.996Z,21.30
2023-02-23T23:27:47.467Z,21.07
2023-02-23T23:31:50.341Z,22.60
2023-02-23T23:35:51.946Z,23.27
2023-02-23T23:39:53.409Z,23.83
2023-02-23T23:43:56.923Z,21.83
2023-02-23T23:47:59.723Z,25.63
2023-02-23T23:52:01.148Z,23.80
2023-02-23T23:56:04.665Z,28.87
